Time;durP1;ratioP1;P1;durP2;ratioP2;P2;SDS_P1;SDS_P2;PMS_P1;PMS_P2;Temp;Humidity;BMP_temperature;BMP_pressure;BME280_temperature;BME280_humidity;BME280_pressure;Samples;Min_cycle;Max_cycle;Signal;HPM_P1;HPM_P2
2021/01/17 00:00:23;;;;;;;183.23;51.23;;;;;;;-19.44;81.16;99340.13;3478558;28;20049;-45
2021/01/17 00:02:05;;;;;;;127.73;38.20;;;;;;;-19.45;81.33;99340.81;3475609;28;20057;-46
2021/01/17 00:03:47;;;;;;;132.00;37.10;;;;;;;-19.44;81.42;99342.59;3474559;28;20045;-45
2021/01/17 00:05:30;;;;;;;66.27;21.43;;;;;;;-19.44;81.17;99342.59;3477015;28;20506;-45
2021/01/17 00:07:12;;;;;;;93.03;31.98;;;;;;;-19.45;81.14;99338.34;3476491;28;20506;-46
2021/01/17 00:08:53;;;;;;;154.13;39.37;;;;;;;-19.45;81.17;99337.44;3476709;28;20422;-45
2021/01/17 00:10:35;;;;;;;185.67;55.67;;;;;;;-19.48;81.07;99337.09;3475731;28;20045;-47
2021/01/17 00:12:17;;;;;;;67.30;24.67;;;;;;;-19.49;80.84;99338.66;3476145;28;20060;-46
2021/01/17 00:13:58;;;;;;;133.13;41.90;;;;;;;-19.49;81.04;99335.31;3474454;28;20080;-49
2021/01/17 00:15:40;;;;;;;163.10;45.13;;;;;;;-19.49;81.17;99332.84;3474841;28;20056;-46
2021/01/17 00:17:21;;;;;;;115.77;34.10;;;;;;;-19.50;80.97;99343.41;3472421;28;20049;-47
2021/01/17 00:19:04;;;;;;;106.30;28.67;;;;;;;-19.51;81.04;99339.19;3476473;28;20147;-48
2021/01/17 00:20:45;;;;;;;134.00;40.10;;;;;;;-19.49;81.23;99343.59;3472985;28;20786;-48
2021/01/17 00:22:27;;;;;;;140.93;38.23;;;;;;;-19.46;81.52;99334.09;3473202;28;20083;-47
2021/01/17 00:24:09;;;;;;;152.97;42.97;;;;;;;-19.41;81.70;99334.69;3474679;28;20426;-47
2021/01/17 00:25:51;;;;;;;131.13;40.30;;;;;;;-19.37;81.69;99333.47;3473094;28;20054;-45
2021/01/17 00:27:32;;;;;;;161.27;46.43;;;;;;;-19.34;81.57;99334.72;3476111;28;20087;-45
2021/01/17 00:29:14;;;;;;;161.60;42.00;;;;;;;-19.33;81.34;99346.38;3474438;28;20057;-45
2021/01/17 00:30:55;;;;;;;154.70;43.47;;;;;;;-19.33;81.09;99340.56;3477772;28;20573;-45
2021/01/17 00:32:37;;;;;;;175.43;45.87;;;;;;;-19.33;80.89;99347.97;3476068;28;20045;-45
2021/01/17 00:34:19;;;;;;;151.37;41.90;;;;;;;-19.32;80.61;99347.28;3474877;28;20450;-46
2021/01/17 00:36:00;;;;;;;152.03;43.63;;;;;;;-19.32;80.27;99344.81;3476111;28;20580;-45
2021/01/17 00:37:42;;;;;;;145.53;42.00;;;;;;;-19.33;80.33;99346.38;3475032;28;20045;-45
2021/01/17 00:39:23;;;;;;;137.90;40.63;;;;;;;-19.31;79.87;99345.00;3476298;28;20120;-45
2021/01/17 00:41:05;;;;;;;154.53;43.40;;;;;;;-19.32;79.60;99339.88;3476025;28;20041;-46
2021/01/17 00:42:47;;;;;;;165.83;41.77;;;;;;;-19.32;79.57;99339.88;3474024;28;20057;-47
2021/01/17 00:44:29;;;;;;;127.43;39.50;;;;;;;-19.34;79.14;99347.09;3474908;28;20737;-45
2021/01/17 00:46:11;;;;;;;141.43;38.33;;;;;;;-19.37;79.16;99344.22;3476518;28;20056;-44
2021/01/17 00:47:52;;;;;;;133.90;38.33;;;;;;;-19.35;79.13;99349.38;3474446;28;20045;-45
2021/01/17 00:49:35;;;;;;;128.53;34.57;;;;;;;-19.37;79.15;99353.22;3476816;28;20080;-46
2021/01/17 00:51:17;;;;;;;126.40;34.00;;;;;;;-19.37;79.25;99358.19;3474771;28;20045;-46
2021/01/17 00:52:58;;;;;;;120.47;33.40;;;;;;;-19.39;79.41;99357.97;3473545;28;20426;-47
2021/01/17 00:54:40;;;;;;;101.97;34.00;;;;;;;-19.38;79.37;99363.78;3476226;28;20422;-47
2021/01/17 00:56:23;;;;;;;123.30;35.33;;;;;;;-19.38;79.75;99362.19;3476163;28;20414;-46
2021/01/17 00:58:05;;;;;;;116.32;33.72;;;;;;;-19.38;79.57;99358.84;3475179;28;20056;-47
2021/01/17 00:59:46;;;;;;;102.17;32.80;;;;;;;-19.41;79.48;99361.84;3476246;28;20506;-47
2021/01/17 01:01:29;;;;;;;128.60;38.13;;;;;;;-19.42;79.41;99362.53;3474448;28;20068;-48
2021/01/17 01:03:11;;;;;;;124.93;34.70;;;;;;;-19.44;79.54;99354.94;3474083;28;20524;-47
2021/01/17 01:04:53;;;;;;;113.83;33.67;;;;;;;-19.45;79.34;99359.69;3476156;28;20080;-47
2021/01/17 01:06:35;;;;;;;117.80;34.43;;;;;;;-19.49;79.21;99363.34;3475340;28;20044;-46
2021/01/17 01:08:17;;;;;;;114.17;34.73;;;;;;;-19.52;79.27;99355.59;3474514;28;20056;-46
2021/01/17 01:09:58;;;;;;;114.63;34.97;;;;;;;-19.55;79.44;99362.59;3474779;28;20053;-48
2021/01/17 01:11:40;;;;;;;156.97;42.17;;;;;;;-19.60;79.47;99361.16;3475125;28;20501;-47
2021/01/17 01:13:21;;;;;;;135.43;38.80;;;;;;;-19.62;79.64;99357.63;3475789;28;20048;-47
2021/01/17 01:15:04;;;;;;;143.30;40.97;;;;;;;-19.64;79.80;99363.97;3474696;28;20056;-47
2021/01/17 01:16:49;;;;;;;151.50;40.23;;;;;;;-19.68;79.78;99359.34;3475912;28;20056;-47
2021/01/17 01:18:30;;;;;;;130.37;38.80;;;;;;;-19.68;79.96;99367.66;3473611;28;20103;-45
2021/01/17 01:20:14;;;;;;;119.47;35.40;;;;;;;-19.65;80.53;99369.59;3475496;28;20049;-46
2021/01/17 01:21:55;;;;;;;158.60;41.55;;;;;;;-19.61;80.72;99365.94;3475540;28;20049;-45
2021/01/17 01:23:37;;;;;;;150.07;38.63;;;;;;;-19.57;80.87;99366.47;3475044;28;20072;-45
2021/01/17 01:25:19;;;;;;;138.10;38.00;;;;;;;-19.51;80.76;99367.22;3475718;28;20516;-45
2021/01/17 01:27:01;;;;;;;128.03;36.43;;;;;;;-19.50;80.10;99364.06;3475004;28;20141;-45
2021/01/17 01:28:42;;;;;;;116.37;33.47;;;;;;;-19.52;79.88;99364.56;3470507;28;20533;-45
2021/01/17 01:30:24;;;;;;;120.33;38.40;;;;;;;-19.56;79.58;99358.34;3471095;28;20418;-46
2021/01/17 01:32:06;;;;;;;100.23;32.83;;;;;;;-19.61;79.35;99363.47;3491281;28;20044;-45
2021/01/17 01:33:48;;;;;;;134.30;36.33;;;;;;;-19.67;79.47;99363.59;3469299;28;20076;-46
2021/01/17 01:35:30;;;;;;;115.83;32.90;;;;;;;-19.74;79.38;99364.41;3471299;28;20055;-47
2021/01/17 01:37:12;;;;;;;97.63;30.33;;;;;;;-19.78;79.65;99361.34;3470669;28;20073;-46
2021/01/17 01:38:54;;;;;;;96.73;30.27;;;;;;;-19.84;79.69;99361.47;3472873;28;20056;-45
2021/01/17 01:40:35;;;;;;;124.17;34.50;;;;;;;-19.88;79.74;99359.31;3472480;28;20053;-47
2021/01/17 01:42:17;;;;;;;115.73;31.20;;;;;;;-19.94;79.91;99359.44;3470998;28;20084;-47
2021/01/17 01:43:58;;;;;;;104.27;31.33;;;;;;;-19.97;79.92;99368.94;3469007;28;20060;-44
2021/01/17 01:45:40;;;;;;;95.30;30.23;;;;;;;-19.98;80.16;99362.22;3469662;28;20064;-45
2021/01/17 01:47:27;;;;;;;98.27;28.40;;;;;;;-19.99;80.48;99357.09;3470912;28;20049;-47
2021/01/17 01:49:10;;;;;;;105.60;28.70;;;;;;;-20.00;80.64;99356.19;3469332;28;20581;-44
2021/01/17 01:50:52;;;;;;;95.40;28.03;;;;;;;-20.01;80.68;99354.44;3468779;28;20056;-45
2021/01/17 01:52:34;;;;;;;98.47;27.57;;;;;;;-20.02;80.87;99351.06;3471014;28;20490;-43
2021/01/17 01:54:15;;;;;;;94.40;27.80;;;;;;;-20.00;81.06;99357.78;3470782;28;20095;-44
2021/01/17 01:55:57;;;;;;;81.87;25.00;;;;;;;-20.00;81.08;99352.84;3469090;28;20053;-47
2021/01/17 01:57:39;;;;;;;62.13;21.17;;;;;;;-19.99;81.10;99352.19;3470805;28;20055;-44
2021/01/17 16:07:34;;;;;;;79.30;31.05;;;;;;;-15.47;73.80;99317.97;3560955;27;20125;-44
2021/01/17 16:09:16;;;;;;;81.65;28.27;;;;;;;-15.50;73.65;99309.28;3555994;27;20133;-44
2021/01/17 16:10:58;;;;;;;65.50;27.30;;;;;;;-15.52;73.48;99313.22;3559382;27;20042;-44
2021/01/17 16:12:40;;;;;;;99.95;36.28;;;;;;;-15.58;73.51;99301.03;3554393;27;20045;-45
2021/01/17 16:14:21;;;;;;;127.77;42.50;;;;;;;-15.60;73.51;99304.94;3555903;27;20090;-46
2021/01/17 16:16:06;;;;;;;104.50;39.40;;;;;;;-15.64;73.80;99313.66;3553033;27;20422;-44
2021/01/17 16:17:48;;;;;;;132.93;45.78;;;;;;;-15.69;74.07;99313.84;3552400;27;20480;-46
2021/01/17 16:19:30;;;;;;;171.23;44.10;;;;;;;-15.72;74.57;99319.41;3555877;27;20529;-45
2021/01/17 16:21:11;;;;;;;160.05;40.88;;;;;;;-15.73;74.82;99317.63;3554136;27;20070;-46
2021/01/17 16:22:53;;;;;;;126.50;37.40;;;;;;;-15.72;75.35;99319.41;3554571;27;20050;-45
2021/01/17 16:24:34;;;;;;;134.65;37.95;;;;;;;-15.71;75.50;99322.75;3555772;27;20043;-45
2021/01/17 16:26:16;;;;;;;92.67;29.67;;;;;;;-15.70;75.81;99317.97;3559265;27;20042;-44
2021/01/17 16:27:57;;;;;;;94.25;32.03;;;;;;;-15.67;75.99;99318.28;3557793;27;20510;-44
2021/01/17 16:29:39;;;;;;;78.40;28.70;;;;;;;-15.64;76.12;99317.72;3557472;27;20046;-45
2021/01/17 16:31:20;;;;;;;139.70;39.65;;;;;;;-15.61;76.03;99320.56;3557511;27;20042;-46
2021/01/17 16:33:06;;;;;;;94.63;28.73;;;;;;;-15.57;75.96;99320.16;3557007;27;20038;-44
2021/01/17 16:34:47;;;;;;;129.68;35.78;;;;;;;-15.56;76.08;99311.13;3551603;27;20051;-47
2021/01/17 16:36:29;;;;;;;86.45;28.85;;;;;;;-15.57;75.86;99317.69;3554254;27;20402;-47
2021/01/17 16:38:13;;;;;;;74.03;23.48;;;;;;;-15.57;75.91;99317.69;3554735;27;20051;-47
2021/01/17 16:39:56;;;;;;;61.42;21.75;;;;;;;-15.57;76.15;99310.22;3559521;27;20115;-47
2021/01/17 16:41:37;;;;;;;70.93;25.80;;;;;;;-15.58;76.09;99308.47;3558884;27;20087;-47
2021/01/17 16:43:19;;;;;;;97.63;32.63;;;;;;;-15.58;76.00;99315.94;3551321;27;20043;-48
2021/01/17 16:45:01;;;;;;;59.23;22.30;;;;;;;-15.56;76.13;99308.66;3554515;27;20047;-49
2021/01/17 16:46:42;;;;;;;72.07;23.90;;;;;;;-15.55;76.11;99307.91;3558327;27;20050;-44
2021/01/17 16:48:24;;;;;;;63.20;24.17;;;;;;;-15.55;76.30;99305.41;3550299;27;20047;-45
2021/01/17 16:50:06;;;;;;;53.75;21.77;;;;;;;-15.53;76.02;99309.84;3555120;27;20053;-44
2021/01/17 16:51:48;;;;;;;80.15;27.80;;;;;;;-15.55;76.15;99303.84;3555000;27;20050;-45
2021/01/17 16:53:30;;;;;;;73.00;29.83;;;;;;;-15.53;75.97;99309.84;3553820;27;20448;-45
2021/01/17 16:55:13;;;;;;;74.97;25.55;;;;;;;-15.53;75.86;99316.41;3552209;27;20091;-44
2021/01/17 16:56:55;;;;;;;75.07;27.20;;;;;;;-15.55;75.85;99313.78;3554301;27;20050;-48
2021/01/17 16:58:37;;;;;;;80.57;26.13;;;;;;;-15.58;75.68;99312.56;3556344;27;20050;-49
2021/01/17 17:00:26;;;;;;;72.95;26.92;;;;;;;-15.63;75.68;99315.41;3556951;27;20285;-48
2021/01/17 17:02:08;;;;;;;77.82;26.67;;;;;;;-15.67;75.58;99320.78;3556973;27;20043;-46
2021/01/17 17:03:49;;;;;;;91.38;32.67;;;;;;;-15.72;75.73;99318.53;3555614;27;20392;-46
2021/01/17 17:05:31;;;;;;;90.50;29.83;;;;;;;-15.75;75.61;99323.16;3556101;27;20046;-46
2021/01/17 17:07:13;;;;;;;76.57;26.40;;;;;;;-15.81;75.33;99321.75;3554308;27;20077;-46
2021/01/17 17:08:55;;;;;;;65.82;22.15;;;;;;;-15.84;75.24;99321.44;3546953;27;20043;-47
2021/01/17 17:10:38;;;;;;;63.85;24.35;;;;;;;-15.88;75.17;99324.31;3547111;27;20099;-47
2021/01/17 17:12:20;;;;;;;61.38;21.83;;;;;;;-15.93;75.08;99327.91;3546521;27;20049;-47
2021/01/17 17:14:02;;;;;;;66.07;21.83;;;;;;;-15.97;74.94;99334.81;3545750;27;20046;-49
2021/01/17 17:15:43;;;;;;;49.53;19.37;;;;;;;-16.02;74.97;99331.84;3546191;27;20178;-49
2021/01/17 17:17:25;;;;;;;48.05;18.17;;;;;;;-16.06;74.61;99329.72;3546735;27;20507;-50
2021/01/17 17:19:07;;;;;;;74.65;20.52;;;;;;;-16.12;74.75;99331.53;3544704;27;20042;-49
2021/01/17 17:20:49;;;;;;;80.78;27.45;;;;;;;-16.18;74.56;99331.75;3547300;27;20055;-48
2021/01/17 17:22:32;;;;;;;65.32;24.40;;;;;;;-16.24;74.50;99328.56;3546254;27;20043;-47
2021/01/17 17:24:15;;;;;;;72.15;25.17;;;;;;;-16.30;74.59;99338.72;3545668;27;20537;-49
2021/01/17 17:25:56;;;;;;;74.07;24.88;;;;;;;-16.33;74.85;99345.81;3545682;27;20499;-48
2021/01/17 17:27:38;;;;;;;65.35;23.48;;;;;;;-16.35;75.39;99348.84;3546432;27;20047;-48
2021/01/17 17:29:19;;;;;;;71.88;23.23;;;;;;;-16.39;75.37;99353.47;3542764;27;20050;-48
2021/01/17 17:31:01;;;;;;;66.17;22.37;;;;;;;-16.41;75.44;99354.91;3548197;27;20267;-48
2021/01/17 17:32:43;;;;;;;66.83;22.10;;;;;;;-16.43;75.79;99352.97;3546384;27;20108;-48
2021/01/17 17:34:25;;;;;;;61.50;21.40;;;;;;;-16.43;75.92;99355.44;3547496;27;20043;-47
2021/01/17 17:36:06;;;;;;;71.22;23.70;;;;;;;-16.46;76.01;99357.56;3548832;27;20137;-48
2021/01/17 17:37:51;;;;;;;87.23;29.93;;;;;;;-16.49;76.03;99358.09;3545564;27;20418;-48
2021/01/17 17:39:33;;;;;;;84.80;28.83;;;;;;;-16.52;75.98;99352.81;3548371;27;20058;-48
2021/01/17 17:41:17;;;;;;;56.00;20.57;;;;;;;-16.54;76.43;99349.25;3547627;27;20475;-48
2021/01/17 17:42:58;;;;;;;52.42;17.15;;;;;;;-16.54;76.73;99353.34;3548692;27;20414;-48
2021/01/17 17:44:40;;;;;;;42.07;16.50;;;;;;;-16.51;77.06;99358.66;3548163;27;20050;-48
2021/01/17 17:46:22;;;;;;;52.50;17.43;;;;;;;-16.50;77.12;99365.38;3545937;27;20499;-50
2021/01/17 17:48:04;;;;;;;64.57;24.83;;;;;;;-16.48;77.30;99366.44;3548272;27;20104;-49
2021/01/17 17:49:46;;;;;;;96.80;30.17;;;;;;;-16.47;77.69;99361.63;3548790;27;20248;-50
2021/01/17 17:51:27;;;;;;;68.13;23.27;;;;;;;-16.45;77.67;99362.72;3544462;27;20046;-47
2021/01/17 17:53:09;;;;;;;56.60;17.48;;;;;;;-16.42;78.09;99364.66;3547886;27;20077;-50
2021/01/17 17:54:51;;;;;;;40.58;15.88;;;;;;;-16.38;78.19;99362.69;3547162;27;20151;-49
2021/01/17 17:56:51;;;;;;;52.88;16.77;;;;;;;-16.34;78.21;99360.53;3549424;27;20138;-48
2021/01/17 17:58:32;;;;;;;47.53;17.05;;;;;;;-16.30;78.46;99358.56;3550777;27;20418;-49
2021/01/17 18:00:15;;;;;;;47.00;17.27;;;;;;;-16.27;78.53;99360.53;3546969;27;20042;-47
2021/01/17 18:01:58;;;;;;;44.22;15.15;;;;;;;-16.26;78.47;99357.31;3545496;27;20046;-47
2021/01/17 18:03:40;;;;;;;45.95;17.35;;;;;;;-16.25;78.48;99357.50;3546135;27;20035;-47
2021/01/17 18:05:22;;;;;;;56.50;18.88;;;;;;;-16.25;78.49;99367.44;3546300;27;20105;-47
2021/01/17 18:07:03;;;;;;;63.53;20.07;;;;;;;-16.23;78.27;99365.13;3545205;27;20058;-47
2021/01/17 18:08:44;;;;;;;51.57;18.40;;;;;;;-16.23;78.37;99368.47;3547399;27;20049;-48
2021/01/17 18:10:27;;;;;;;49.50;17.87;;;;;;;-16.22;78.40;99365.28;3545214;27;20065;-47
2021/01/17 18:12:08;;;;;;;50.23;17.40;;;;;;;-16.23;78.22;99366.00;3547137;27;20071;-46
2021/01/17 18:13:50;;;;;;;49.33;16.03;;;;;;;-16.23;78.38;99361.03;3546918;27;20559;-47
2021/01/17 18:15:31;;;;;;;43.23;14.23;;;;;;;-16.23;78.23;99357.66;3546927;27;20039;-48
2021/01/17 18:17:13;;;;;;;41.17;15.05;;;;;;;-16.22;78.39;99345.44;3550250;27;20054;-47
2021/01/17 18:18:54;;;;;;;51.60;17.43;;;;;;;-16.20;78.14;99348.97;3550152;27;20422;-47
2021/01/17 18:20:36;;;;;;;52.30;16.97;;;;;;;-16.19;78.04;99352.31;3551919;27;20051;-47
2021/01/17 18:22:17;;;;;;;41.50;15.50;;;;;;;-16.20;77.79;99351.44;3549354;27;20057;-47
2021/01/17 18:23:59;;;;;;;42.80;16.60;;;;;;;-16.20;77.66;99358.03;3552090;27;20051;-47
2021/01/17 18:25:41;;;;;;;50.70;16.02;;;;;;;-16.22;77.54;99361.91;3550985;27;20070;-48
2021/01/17 18:27:22;;;;;;;48.50;16.63;;;;;;;-16.25;77.44;99354.13;3550657;27;20038;-49
2021/01/17 18:29:04;;;;;;;43.67;16.43;;;;;;;-16.28;77.54;99363.72;3551279;27;20046;-47
2021/01/17 18:30:45;;;;;;;40.00;15.73;;;;;;;-16.31;77.31;99363.38;3547757;27;20047;-50
2021/01/17 18:32:28;;;;;;;41.95;13.60;;;;;;;-16.34;77.29;99370.47;3549485;27;20575;-47
2021/01/17 18:34:10;;;;;;;34.80;15.03;;;;;;;-16.36;77.48;99372.78;3551243;27;20424;-49
2021/01/17 18:35:51;;;;;;;45.50;16.00;;;;;;;-16.37;77.54;99378.47;3549605;27;20195;-47
2021/01/17 18:37:35;;;;;;;42.60;15.32;;;;;;;-16.36;77.57;99380.25;3552458;27;20549;-47
2021/01/17 18:39:16;;;;;;;44.42;16.70;;;;;;;-16.39;77.60;99384.84;3549511;27;20115;-48
2021/01/17 18:40:58;;;;;;;44.57;14.30;;;;;;;-16.43;77.59;99385.22;3541555;27;20058;-47
2021/01/17 18:42:40;;;;;;;44.87;14.73;;;;;;;-16.44;77.33;99394.25;3552153;27;20421;-49
2021/01/17 18:44:34;;;;;;;37.60;13.87;;;;;;;-16.46;77.41;99394.81;3549669;27;20053;-48
2021/01/17 18:46:15;;;;;;;44.73;15.37;;;;;;;-16.50;77.25;99398.53;3550231;27;20058;-48
2021/01/17 18:48:02;;;;;;;43.07;15.60;;;;;;;-16.51;77.00;99404.19;3552024;27;20464;-49
2021/01/17 18:49:43;;;;;;;46.37;14.33;;;;;;;-16.55;77.03;99401.22;3549850;27;20149;-48
2021/01/17 18:51:25;;;;;;;40.97;16.40;;;;;;;-16.59;76.72;99400.84;3549481;27;20061;-48
2021/01/17 18:53:06;;;;;;;34.53;14.00;;;;;;;-16.65;76.38;99405.09;3552377;27;20053;-50
2021/01/17 18:56:26;;;;;;;44.13;15.30;;;;;;;-16.72;76.29;99406.72;3577715;27;20613;-50
2021/01/17 18:58:08;;;;;;;45.67;15.50;;;;;;;-16.77;76.25;99402.13;3549300;27;20049;-48
2021/01/17 18:59:49;;;;;;;44.50;15.27;;;;;;;-16.80;76.40;99406.72;3559740;27;20070;-47
2021/01/17 19:01:37;;;;;;;45.30;15.93;;;;;;;-16.83;76.51;99408.84;3552599;27;20494;-51
2021/01/17 19:03:18;;;;;;;41.97;14.97;;;;;;;-16.83;76.34;99415.41;3564766;27;20451;-49
2021/01/17 19:05:00;;;;;;;38.20;13.93;;;;;;;-16.84;76.39;99426.03;3562746;27;20053;-47
2021/01/17 19:07:00;;;;;;;39.87;13.80;;;;;;;-16.88;76.22;99419.00;3561289;27;20056;-51
2021/01/17 19:08:42;;;;;;;34.17;14.37;;;;;;;-16.91;76.24;99426.94;3546620;27;20487;-48
2021/01/17 19:10:24;;;;;;;41.03;15.20;;;;;;;-16.92;75.95;99427.69;3558844;27;20046;-47
2021/01/17 19:12:08;;;;;;;40.77;15.43;;;;;;;-16.98;75.91;99430.34;3560288;27;20090;-48
2021/01/17 19:13:49;;;;;;;41.55;14.50;;;;;;;-17.04;75.57;99424.66;3564347;27;20073;-49
2021/01/17 19:15:31;;;;;;;36.93;14.77;;;;;;;-17.09;75.69;99430.69;3561929;27;20050;-51
2021/01/17 19:17:12;;;;;;;37.97;14.73;;;;;;;-17.15;75.37;99430.84;3560319;27;20042;-48
2021/01/17 19:18:54;;;;;;;41.17;15.43;;;;;;;-17.19;75.62;99433.69;3550158;27;20051;-49
2021/01/17 19:20:36;;;;;;;44.60;16.30;;;;;;;-17.22;75.80;99432.47;3561455;27;20057;-46
2021/01/17 19:22:18;;;;;;;42.87;14.77;;;;;;;-17.25;76.17;99435.44;3561659;27;20046;-46
2021/01/17 19:24:00;;;;;;;43.65;15.30;;;;;;;-17.31;76.04;99429.78;3563528;27;20042;-45
2021/01/17 19:25:41;;;;;;;41.07;14.77;;;;;;;-17.31;76.15;99434.75;3558916;27;20046;-47
2021/01/17 19:27:29;;;;;;;41.27;14.90;;;;;;;-17.32;76.28;99435.44;3563507;27;20039;-45
2021/01/17 19:29:10;;;;;;;43.87;15.20;;;;;;;-17.34;76.09;99437.72;3561511;27;20058;-46
2021/01/17 19:30:52;;;;;;;48.50;15.67;;;;;;;-17.35;76.17;99437.53;3561402;27;20071;-46
2021/01/17 19:32:33;;;;;;;38.83;15.37;;;;;;;-17.36;76.30;99445.72;3563030;27;20051;-45
2021/01/17 19:34:16;;;;;;;44.40;15.20;;;;;;;-17.38;76.29;99442.16;3560604;27;20546;-47
2021/01/17 19:35:57;;;;;;;38.53;13.87;;;;;;;-17.38;76.35;99447.13;3563525;27;20046;-47
2021/01/17 19:37:39;;;;;;;42.57;15.37;;;;;;;-17.38;76.41;99445.53;3560619;27;20043;-48
2021/01/17 19:39:20;;;;;;;43.60;15.70;;;;;;;-17.38;76.37;99444.66;3560741;27;21855;-47
2021/01/17 19:41:02;;;;;;;40.27;15.73;;;;;;;-17.41;76.47;99447.63;3562539;27;20055;-48
2021/01/17 19:42:50;;;;;;;42.47;16.33;;;;;;;-17.42;76.64;99443.41;3558571;27;20043;-49
2021/01/17 19:44:32;;;;;;;39.77;14.50;;;;;;;-17.42;76.71;99444.97;3554952;27;20325;-47
2021/01/17 19:46:17;;;;;;;57.67;17.43;;;;;;;-17.41;77.02;99445.16;3557259;27;20556;-48
2021/01/17 19:47:59;;;;;;;47.33;16.73;;;;;;;-17.40;77.17;99446.94;3558556;27;20061;-45
2021/01/17 19:49:41;;;;;;;49.67;15.40;;;;;;;-17.38;77.44;99447.13;3562905;27;20150;-46
2021/01/17 19:51:23;;;;;;;50.13;16.23;;;;;;;-17.36;77.53;99446.59;3558296;27;20069;-45
2021/01/17 19:53:05;;;;;;;48.80;16.73;;;;;;;-17.36;77.87;99441.63;3557857;27;20723;-46
2021/01/17 19:54:46;;;;;;;51.47;16.50;;;;;;;-17.31;78.10;99447.13;3555741;27;20042;-45
2021/01/17 19:56:28;;;;;;;43.53;16.07;;;;;;;-17.28;78.18;99449.06;3559813;27;20083;-45
2021/01/17 19:58:11;;;;;;;47.58;16.00;;;;;;;-17.25;78.25;99444.47;3559103;27;20171;-48
2021/01/17 19:59:53;;;;;;;50.77;16.63;;;;;;;-17.22;78.49;99453.16;3559272;27;20051;-47
2021/01/17 20:01:35;;;;;;;50.90;16.80;;;;;;;-17.17;78.52;99454.59;3559264;27;20047;-48
2021/01/17 20:03:17;;;;;;;49.70;17.17;;;;;;;-17.13;78.79;99450.88;3559799;27;20092;-49
2021/01/17 20:04:59;;;;;;;46.03;18.47;;;;;;;-17.09;79.02;99449.63;3562022;27;20046;-49
2021/01/17 20:06:42;;;;;;;53.47;17.10;;;;;;;-17.02;79.72;99459.56;3556381;27;20537;-50
2021/01/17 20:08:24;;;;;;;40.47;15.27;;;;;;;-16.96;80.07;99456.22;3551280;27;20103;-50
2021/01/17 20:10:08;;;;;;;55.10;17.88;;;;;;;-16.88;80.30;99447.16;3550588;27;20055;-49
2021/01/17 20:11:51;;;;;;;47.90;17.77;;;;;;;-16.81;80.51;99446.25;3549364;27;20051;-51
2021/01/17 20:13:33;;;;;;;45.60;16.80;;;;;;;-16.73;80.92;99453.00;3552470;27;20054;-47
2021/01/17 20:15:14;;;;;;;49.83;18.77;;;;;;;-16.68;81.08;99456.88;3549478;27;20047;-52
2021/01/17 20:16:56;;;;;;;53.53;18.90;;;;;;;-16.61;81.14;99456.88;3550124;27;20043;-48
2021/01/17 20:18:39;;;;;;;60.40;17.63;;;;;;;-16.55;81.18;99455.81;3552992;27;20039;-46
2021/01/17 20:20:21;;;;;;;51.42;19.10;;;;;;;-16.50;81.18;99454.72;3547983;27;20455;-46
2021/01/17 20:22:03;;;;;;;61.60;20.37;;;;;;;-16.46;81.34;99457.72;3553033;27;20054;-49
2021/01/17 20:23:46;;;;;;;62.30;21.73;;;;;;;-16.43;81.15;99455.63;3551941;27;20547;-46
2021/01/17 20:25:27;;;;;;;64.27;22.30;;;;;;;-16.41;81.11;99453.31;3549201;27;20047;-46
2021/01/17 20:27:09;;;;;;;72.27;23.70;;;;;;;-16.40;81.05;99460.03;3553543;27;20279;-47
2021/01/17 20:28:52;;;;;;;69.23;22.77;;;;;;;-16.39;80.91;99451.88;3551652;27;20073;-46
2021/01/17 20:30:34;;;;;;;61.92;20.95;;;;;;;-16.38;80.88;99463.56;3550308;27;20043;-46
2021/01/17 20:32:15;;;;;;;61.60;23.03;;;;;;;-16.39;81.35;99457.72;3546235;27;20046;-45
2021/01/17 20:33:58;;;;;;;50.00;20.37;;;;;;;-16.36;81.36;99462.16;3543312;27;20042;-46
2021/01/17 20:35:40;;;;;;;59.80;18.80;;;;;;;-16.35;81.64;99458.97;3542886;27;20597;-45
2021/01/17 20:37:21;;;;;;;46.97;18.00;;;;;;;-16.34;81.40;99460.75;3549234;27;20414;-45
2021/01/17 20:39:07;;;;;;;45.60;18.87;;;;;;;-16.32;81.74;99458.44;3547770;27;20107;-45
2021/01/17 20:40:48;;;;;;;49.73;18.50;;;;;;;-16.29;81.94;99461.25;3547310;27;20039;-45
2021/01/17 20:42:30;;;;;;;51.78;17.98;;;;;;;-16.26;82.07;99460.00;3549753;27;20078;-44
2021/01/17 20:44:13;;;;;;;45.40;15.73;;;;;;;-16.21;82.21;99463.00;3550570;27;20498;-50
2021/01/17 20:45:55;;;;;;;40.03;15.82;;;;;;;-16.20;82.04;99467.28;3550506;27;20050;-49
2021/01/17 20:47:38;;;;;;;47.80;16.50;;;;;;;-16.16;82.30;99466.91;3550426;27;20053;-48
2021/01/17 20:49:20;;;;;;;46.72;16.13;;;;;;;-16.11;82.48;99465.81;3536216;27;20051;-50
2021/01/17 20:51:02;;;;;;;45.13;16.47;;;;;;;-16.07;82.26;99464.56;3550749;27;20054;-52
2021/01/17 20:52:43;;;;;;;48.30;17.57;;;;;;;-16.06;82.04;99467.25;3546756;27;20103;-51
2021/01/17 20:54:25;;;;;;;48.73;17.80;;;;;;;-16.04;81.98;99470.78;3553494;27;20104;-49
2021/01/17 20:56:07;;;;;;;51.83;19.73;;;;;;;-16.03;82.03;99469.16;3550790;27;20047;-50
2021/01/17 20:57:48;;;;;;;48.93;16.37;;;;;;;-16.02;81.93;99468.47;3549064;27;20073;-48
2021/01/17 20:59:31;;;;;;;40.97;16.40;;;;;;;-16.01;81.94;99477.66;3550034;27;20395;-48
2021/01/17 21:01:14;;;;;;;48.33;16.43;;;;;;;-16.01;81.97;99478.59;3550703;27;20388;-51
2021/01/17 21:02:56;;;;;;;43.53;17.60;;;;;;;-15.98;81.88;99479.63;3548824;27;20043;-49
2021/01/17 21:04:37;;;;;;;45.47;16.20;;;;;;;-15.95;82.13;99480.00;3547494;27;20503;-49
2021/01/17 21:06:19;;;;;;;36.00;15.23;;;;;;;-15.94;82.08;99477.66;3545940;27;20115;-51
2021/01/17 21:08:02;;;;;;;43.97;17.63;;;;;;;-15.91;82.25;99477.13;3551128;27;20047;-52
2021/01/17 21:09:45;;;;;;;49.63;17.45;;;;;;;-15.91;82.05;99473.03;3548886;27;20043;-52
2021/01/17 21:11:27;;;;;;;44.60;16.77;;;;;;;-15.86;82.24;99481.88;3548425;27;20043;-48
2021/01/17 21:13:08;;;;;;;34.95;13.57;;;;;;;-15.82;82.27;99478.13;3547712;27;20050;-49
2021/01/17 21:14:50;;;;;;;34.30;13.02;;;;;;;-15.78;82.23;99484.31;3548577;27;20559;-49
2021/01/17 21:16:32;;;;;;;38.22;11.43;;;;;;;-15.73;82.18;99476.66;3545076;27;20589;-45
2021/01/17 21:18:13;;;;;;;27.40;11.63;;;;;;;-15.67;82.33;99477.34;3547991;27;20095;-48
2021/01/17 21:19:55;;;;;;;37.70;11.13;;;;;;;-15.61;82.17;99478.03;3544824;27;20139;-45
2021/01/17 21:21:36;;;;;;;26.38;9.75;;;;;;;-15.56;82.20;99478.56;3539763;27;20050;-45
2021/01/17 21:23:18;;;;;;;34.83;11.55;;;;;;;-15.52;82.10;99480.66;3542700;27;20047;-46
2021/01/17 21:24:59;;;;;;;33.57;11.77;;;;;;;-15.45;82.20;99472.28;3542975;27;20038;-44
2021/01/17 21:26:41;;;;;;;41.03;11.23;;;;;;;-15.39;82.22;99477.03;3542414;27;20043;-44
2021/01/17 21:28:22;;;;;;;34.27;12.53;;;;;;;-15.33;82.05;99483.59;3545407;27;20577;-45
2021/01/17 21:30:06;;;;;;;33.05;10.90;;;;;;;-15.29;82.22;99478.22;3542781;27;20479;-44
2021/01/17 21:31:54;;;;;;;37.72;12.63;;;;;;;-15.24;81.89;99471.28;3542782;27;20043;-44
2021/01/17 21:33:35;;;;;;;30.25;9.80;;;;;;;-15.22;81.73;99469.84;3549652;27;20079;-44
2021/01/17 21:35:17;;;;;;;31.37;10.60;;;;;;;-15.19;81.55;99479.25;3541146;27;20047;-45
2021/01/17 21:36:58;;;;;;;33.20;11.23;;;;;;;-15.16;81.36;99472.09;3545282;27;20043;-45
2021/01/17 21:38:40;;;;;;;29.33;10.75;;;;;;;-15.16;81.25;99468.03;3544553;27;20057;-45
2021/01/17 21:40:22;;;;;;;25.43;10.07;;;;;;;-15.13;81.36;99470.84;3541605;27;20518;-48
2021/01/17 21:42:10;;;;;;;26.67;9.73;;;;;;;-15.11;81.21;99466.03;3544423;27;20495;-49
2021/01/17 21:43:52;;;;;;;26.75;9.90;;;;;;;-15.10;80.96;99466.22;3541557;27;20054;-48
2021/01/17 21:45:34;;;;;;;27.33;10.50;;;;;;;-15.09;80.71;99467.09;3547754;27;20088;-52
2021/01/17 21:47:15;;;;;;;23.07;9.37;;;;;;;-15.09;80.88;99454.66;3544555;27;20043;-51
2021/01/17 21:48:57;;;;;;;24.67;10.07;;;;;;;-15.09;80.71;99459.63;3542301;27;20085;-49
2021/01/17 21:50:38;;;;;;;21.90;9.10;;;;;;;-15.09;80.87;99452.16;3546283;27;20054;-49
2021/01/17 21:52:20;;;;;;;26.83;9.80;;;;;;;-15.09;81.10;99443.13;3550005;27;20078;-49